createdAt,value
2018-02-27T00:00:23.507Z,8.48
2018-02-27T00:02:51.396Z,9.40
2018-02-27T00:05:19.067Z,9.90
2018-02-27T00:07:46.696Z,8.40
2018-02-27T00:10:14.348Z,5.97
2018-02-27T00:12:41.991Z,7.53
2018-02-27T00:15:09.633Z,7.30
2018-02-27T00:17:37.266Z,8.70
2018-02-27T00:20:05.285Z,7.97
2018-02-27T00:22:33.676Z,8.05
2018-02-27T00:25:01.304Z,9.77
2018-02-27T00:27:29.272Z,15.43
2018-02-27T00:29:57.676Z,10.10
2018-02-27T00:32:26.133Z,10.02
2018-02-27T00:34:54.545Z,8.20
2018-02-27T00:37:22.176Z,9.80
2018-02-27T00:39:49.813Z,11.18
2018-02-27T00:42:17.452Z,8.45
2018-02-27T00:44:45.434Z,12.98
2018-02-27T00:47:26.404Z,10.10
2018-02-27T00:49:54.769Z,8.30
2018-02-27T00:52:22.412Z,9.88
2018-02-27T00:54:50.048Z,8.55
2018-02-27T00:57:17.698Z,10.80
2018-02-27T00:59:45.329Z,10.15
2018-02-27T01:02:13.001Z,10.35
2018-02-27T01:04:40.677Z,10.48
2018-02-27T01:07:08.324Z,9.48
2018-02-27T01:09:37.108Z,9.73
2018-02-27T01:12:05.517Z,9.23
2018-02-27T01:14:33.925Z,10.77
2018-02-27T01:17:01.556Z,8.95
2018-02-27T01:19:29.955Z,11.10
2018-02-27T01:21:57.587Z,11.30
2018-02-27T01:24:25.489Z,10.93
2018-02-27T01:26:53.125Z,8.48
2018-02-27T01:29:20.821Z,9.32
2018-02-27T01:31:49.277Z,10.07
2018-02-27T01:34:17.673Z,9.40
2018-02-27T01:36:46.069Z,9.15
2018-02-27T01:39:13.702Z,8.60
2018-02-27T01:41:41.615Z,8.95
2018-02-27T01:44:09.247Z,8.95
2018-02-27T01:46:36.884Z,7.45
2018-02-27T01:49:04.521Z,10.57
2018-02-27T01:51:32.360Z,12.10
2018-02-27T01:54:00.375Z,11.85
2018-02-27T01:56:28.021Z,10.90
2018-02-27T01:58:55.660Z,10.10
2018-02-27T02:01:24.073Z,11.55
2018-02-27T02:03:51.731Z,10.50
2018-02-27T02:06:19.736Z,10.32
2018-02-27T02:08:47.380Z,13.38
2018-02-27T02:11:15.010Z,9.73
2018-02-27T02:13:43.425Z,10.70
2018-02-27T02:16:11.065Z,7.82
2018-02-27T02:18:39.473Z,10.73
2018-02-27T02:21:07.112Z,9.60
2018-02-27T02:23:34.761Z,11.63
2018-02-27T02:26:02.392Z,10.02
2018-02-27T02:28:30.042Z,9.90
2018-02-27T02:30:58.937Z,9.90
2018-02-27T02:33:27.351Z,9.30
2018-02-27T02:35:54.973Z,12.32
2018-02-27T02:38:23.372Z,10.13
2018-02-27T02:41:04.327Z,12.30
2018-02-27T02:43:32.741Z,8.13
2018-02-27T02:46:00.372Z,10.00
2018-02-27T02:48:28.772Z,10.23
2018-02-27T02:50:56.408Z,12.68
2018-02-27T02:53:24.040Z,10.60
2018-02-27T02:55:51.672Z,9.10
2018-02-27T02:58:19.308Z,11.00
2018-02-27T03:00:48.048Z,9.45
2018-02-27T03:03:15.680Z,9.40
2018-02-27T03:05:44.076Z,13.18
2018-02-27T03:08:11.731Z,10.20
2018-02-27T03:10:43.873Z,11.55
2018-02-27T03:13:11.500Z,11.18
2018-02-27T03:15:39.143Z,11.40
2018-02-27T03:18:06.764Z,12.07
2018-02-27T03:20:34.400Z,15.27
2018-02-27T03:23:02.050Z,9.05
2018-02-27T03:25:29.677Z,13.20
2018-02-27T03:27:57.352Z,12.77
2018-02-27T03:30:26.121Z,11.30
2018-02-27T03:32:53.748Z,10.35
2018-02-27T03:35:21.689Z,9.38
2018-02-27T03:37:50.150Z,12.75
2018-02-27T03:40:17.780Z,11.20
2018-02-27T03:42:45.424Z,10.90
2018-02-27T03:45:13.046Z,11.15
2018-02-27T03:47:40.678Z,7.43
2018-02-27T03:50:08.300Z,8.65
2018-02-27T03:52:36.760Z,11.30
2018-02-27T03:55:04.385Z,11.00
2018-02-27T03:57:32.039Z,7.43
2018-02-27T04:00:00.477Z,10.63
2018-02-27T04:02:28.089Z,10.40
2018-02-27T04:04:57.199Z,8.43
2018-02-27T04:07:24.824Z,11.27
2018-02-27T04:09:55.572Z,11.15
2018-02-27T04:12:24.680Z,9.35
2018-02-27T04:14:53.084Z,9.90
2018-02-27T04:17:20.711Z,8.88
2018-02-27T04:19:48.341Z,9.82
2018-02-27T04:22:15.978Z,12.45
2018-02-27T04:24:43.616Z,9.00
2018-02-27T04:27:11.799Z,10.48
2018-02-27T04:29:40.257Z,12.52
2018-02-27T04:32:08.865Z,7.72
2018-02-27T04:34:36.492Z,8.10
2018-02-27T04:37:04.617Z,8.60
2018-02-27T04:39:33.745Z,9.80
2018-02-27T04:42:01.372Z,11.00
2018-02-27T04:44:28.997Z,10.32
2018-02-27T04:46:56.624Z,10.55
2018-02-27T04:49:25.053Z,8.45
2018-02-27T04:51:52.651Z,9.40
2018-02-27T04:54:20.280Z,6.72
2018-02-27T04:56:47.967Z,12.20
2018-02-27T04:59:15.596Z,10.07
2018-02-27T05:01:43.225Z,15.18
2018-02-27T05:04:11.633Z,11.65
2018-02-27T05:06:39.266Z,10.35
2018-02-27T05:09:08.873Z,9.98
2018-02-27T05:11:36.597Z,10.82
2018-02-27T05:14:04.228Z,9.52
2018-02-27T05:16:32.628Z,12.30
2018-02-27T05:19:00.265Z,9.77
2018-02-27T05:21:27.958Z,13.68
2018-02-27T05:23:56.356Z,10.30
2018-02-27T05:26:23.978Z,12.35
2018-02-27T05:28:51.611Z,11.70
2018-02-27T05:31:19.231Z,9.20
2018-02-27T05:33:47.622Z,12.20
2018-02-27T05:36:16.061Z,9.60
2018-02-27T05:38:43.688Z,9.07
2018-02-27T05:41:11.308Z,10.25
2018-02-27T05:43:45.800Z,11.15
2018-02-27T05:46:13.436Z,9.45
2018-02-27T05:48:41.111Z,12.52
2018-02-27T05:51:08.709Z,12.50
2018-02-27T05:53:36.332Z,15.98
2018-02-27T05:56:03.981Z,16.62
2018-02-27T05:58:32.393Z,10.70
2018-02-27T06:01:00.025Z,13.77
2018-02-27T06:03:28.421Z,12.07
2018-02-27T06:05:56.815Z,13.10
2018-02-27T06:08:24.440Z,15.55
2018-02-27T06:10:52.064Z,10.75
2018-02-27T06:13:19.692Z,10.57
2018-02-27T06:15:48.135Z,18.65
2018-02-27T06:18:15.749Z,11.70
2018-02-27T06:20:44.459Z,14.73
2018-02-27T06:23:12.141Z,11.77
2018-02-27T06:25:39.760Z,11.05
2018-02-27T06:28:07.397Z,10.25
2018-02-27T06:30:35.037Z,12.10
2018-02-27T06:33:02.668Z,12.48
2018-02-27T06:35:31.069Z,8.60
2018-02-27T06:37:58.692Z,15.20
2018-02-27T06:40:26.332Z,10.65
2018-02-27T06:42:53.958Z,10.65
2018-02-27T06:45:21.585Z,12.37
2018-02-27T06:47:49.266Z,12.93
2018-02-27T06:50:16.888Z,9.65
2018-02-27T06:52:44.556Z,12.65
2018-02-27T06:55:12.194Z,12.52
2018-02-27T06:57:39.829Z,11.82
2018-02-27T07:00:07.489Z,10.77
2018-02-27T07:02:35.108Z,13.00
2018-02-27T07:05:02.764Z,17.05
2018-02-27T07:07:30.404Z,13.10
2018-02-27T07:09:58.029Z,12.50
2018-02-27T07:12:25.656Z,13.50
2018-02-27T07:14:54.484Z,14.43
2018-02-27T07:17:22.147Z,12.00
2018-02-27T07:19:49.780Z,12.00
2018-02-27T07:22:17.431Z,11.07
2018-02-27T07:24:45.229Z,11.65
2018-02-27T07:27:12.873Z,12.57
2018-02-27T07:29:41.268Z,13.57
2018-02-27T07:32:08.901Z,14.55
2018-02-27T07:34:36.820Z,9.98
2018-02-27T07:37:04.467Z,13.40
2018-02-27T07:39:32.124Z,8.95
2018-02-27T07:42:00.519Z,12.02
2018-02-27T07:44:28.166Z,10.85
2018-02-27T07:46:55.792Z,13.20
2018-02-27T07:49:23.425Z,12.20
2018-02-27T07:51:51.820Z,11.70
2018-02-27T07:54:19.535Z,11.45
2018-02-27T07:56:47.151Z,12.95
2018-02-27T07:59:14.816Z,10.45
2018-02-27T08:01:42.456Z,9.65
2018-02-27T08:04:10.208Z,12.05
2018-02-27T08:06:37.825Z,12.70
2018-02-27T08:09:06.244Z,10.95
2018-02-27T08:11:33.881Z,17.27
2018-02-27T08:14:01.509Z,11.75
2018-02-27T08:16:29.916Z,12.02
2018-02-27T08:18:57.961Z,12.70
2018-02-27T08:21:25.575Z,16.75
2018-02-27T08:23:53.252Z,10.25
2018-02-27T08:26:20.889Z,11.55
2018-02-27T08:28:48.528Z,11.85
2018-02-27T08:31:16.929Z,10.43
2018-02-27T08:33:44.624Z,13.50
2018-02-27T08:36:12.249Z,9.52
2018-02-27T08:38:40.661Z,11.30
2018-02-27T08:41:08.281Z,11.27
2018-02-27T08:43:35.917Z,12.02
2018-02-27T08:46:03.544Z,12.00
2018-02-27T08:48:31.180Z,10.77
2018-02-27T08:50:58.868Z,8.52
2018-02-27T08:53:26.464Z,14.32
2018-02-27T08:55:54.102Z,11.65
2018-02-27T08:58:21.751Z,11.57
2018-02-27T09:00:50.416Z,8.87
2018-02-27T09:03:18.044Z,8.25
2018-02-27T09:05:45.673Z,6.50
2018-02-27T09:08:13.301Z,6.27
2018-02-27T09:10:40.931Z,9.33
2018-02-27T09:13:08.553Z,7.30
2018-02-27T09:15:36.188Z,10.50
2018-02-27T09:18:03.996Z,9.60
2018-02-27T09:20:31.632Z,9.50
2018-02-27T09:22:59.253Z,9.60
2018-02-27T09:25:26.881Z,11.10
2018-02-27T09:27:54.509Z,8.83
2018-02-27T09:30:22.158Z,7.37
2018-02-27T09:32:49.780Z,8.23
2018-02-27T09:35:17.408Z,8.13
2018-02-27T09:37:45.073Z,8.07
2018-02-27T09:40:12.692Z,6.40
2018-02-27T09:42:40.316Z,5.93
2018-02-27T09:45:07.953Z,8.33
2018-02-27T09:47:36.336Z,13.57
2018-02-27T09:50:05.119Z,9.03
2018-02-27T09:52:33.504Z,7.87
2018-02-27T09:55:01.900Z,9.53
2018-02-27T09:57:29.517Z,10.83
2018-02-27T09:59:57.145Z,8.27
2018-02-27T10:02:24.772Z,4.93
2018-02-27T10:04:52.408Z,7.57
2018-02-27T10:07:20.036Z,7.67
2018-02-27T10:09:47.681Z,6.40
2018-02-27T10:12:16.066Z,6.30
2018-02-27T10:14:44.458Z,4.70
2018-02-27T10:17:12.133Z,6.27
2018-02-27T10:19:39.708Z,8.17
2018-02-27T10:22:07.333Z,7.77
2018-02-27T10:24:34.954Z,8.87
2018-02-27T10:27:02.580Z,7.80
2018-02-27T10:29:30.973Z,6.50
2018-02-27T10:31:58.600Z,5.73
2018-02-27T10:34:27.001Z,6.60
2018-02-27T10:36:54.628Z,5.87
2018-02-27T10:39:22.265Z,8.27
2018-02-27T10:41:49.896Z,8.97
2018-02-27T10:44:17.524Z,5.17
2018-02-27T10:46:49.836Z,8.07
2018-02-27T10:49:17.492Z,6.30
2018-02-27T10:51:53.156Z,8.87
2018-02-27T10:54:21.550Z,6.77
2018-02-27T10:56:49.944Z,8.67
2018-02-27T10:59:17.589Z,8.53
2018-02-27T11:01:48.935Z,8.20
2018-02-27T11:04:16.566Z,7.43
2018-02-27T11:06:44.190Z,6.37
2018-02-27T11:09:11.837Z,5.33
2018-02-27T11:11:39.472Z,6.57
2018-02-27T11:14:07.134Z,8.73
2018-02-27T11:16:44.755Z,7.87
2018-02-27T11:19:12.426Z,5.50
2018-02-27T11:21:40.050Z,6.27
2018-02-27T11:24:07.688Z,5.33
2018-02-27T11:26:36.077Z,7.80
2018-02-27T11:29:03.724Z,6.53
2018-02-27T11:31:32.100Z,7.50
2018-02-27T11:33:59.745Z,7.70
2018-02-27T11:36:27.364Z,5.60
2018-02-27T11:38:54.985Z,4.97
2018-02-27T11:41:22.596Z,4.13
2018-02-27T11:43:50.213Z,6.60
2018-02-27T11:46:17.847Z,6.03
2018-02-27T11:48:45.460Z,6.17
2018-02-27T11:51:13.856Z,10.27
2018-02-27T11:53:42.265Z,5.83
2018-02-27T11:56:09.876Z,5.63
2018-02-27T11:58:38.268Z,4.90
2018-02-27T12:01:06.045Z,6.70
2018-02-27T12:03:34.445Z,4.73
2018-02-27T12:06:02.846Z,7.87
2018-02-27T12:08:36.530Z,8.63
2018-02-27T12:11:04.929Z,6.17
2018-02-27T12:13:33.071Z,6.10
2018-02-27T12:16:00.665Z,4.50
2018-02-27T12:18:28.389Z,6.63
2018-02-27T12:20:57.055Z,7.40
2018-02-27T12:23:24.696Z,6.77
2018-02-27T12:25:52.311Z,11.63
2018-02-27T12:28:19.969Z,6.13
2018-02-27T12:30:47.586Z,5.33
2018-02-27T12:33:15.217Z,5.93
2018-02-27T12:35:43.221Z,5.47
2018-02-27T12:38:10.841Z,5.43
2018-02-27T12:40:38.448Z,5.13
2018-02-27T12:43:06.842Z,6.30
2018-02-27T12:45:34.460Z,10.43
2018-02-27T12:48:02.089Z,9.93
2018-02-27T12:50:29.700Z,7.97
2018-02-27T12:52:57.349Z,5.43
2018-02-27T12:55:24.941Z,7.73
2018-02-27T12:57:53.333Z,6.50
2018-02-27T13:00:21.709Z,6.70
2018-02-27T13:02:52.028Z,10.13
2018-02-27T13:05:19.648Z,7.20
2018-02-27T13:07:47.282Z,10.17
2018-02-27T13:10:15.665Z,9.00
2018-02-27T13:12:44.080Z,5.83
2018-02-27T13:15:11.716Z,8.93
2018-02-27T13:17:40.101Z,8.30
2018-02-27T13:20:07.786Z,6.90
2018-02-27T13:22:35.409Z,4.17
2018-02-27T13:25:03.053Z,6.70
2018-02-27T13:27:30.681Z,7.70
2018-02-27T13:29:58.336Z,6.43
2018-02-27T13:32:26.715Z,8.87
2018-02-27T13:34:54.356Z,6.30
2018-02-27T13:37:21.977Z,5.97
2018-02-27T13:39:49.601Z,5.43
2018-02-27T13:42:17.984Z,8.20
2018-02-27T13:44:51.369Z,9.13
2018-02-27T13:47:18.996Z,13.47
2018-02-27T13:49:46.632Z,6.67
2018-02-27T13:52:14.330Z,7.07
2018-02-27T13:54:42.136Z,5.70
2018-02-27T13:57:09.785Z,5.47
2018-02-27T13:59:41.059Z,9.70
2018-02-27T14:02:09.436Z,6.23
2018-02-27T14:04:37.055Z,6.50
2018-02-27T14:07:04.685Z,9.87
2018-02-27T14:09:33.092Z,7.57
2018-02-27T14:12:00.713Z,4.90
2018-02-27T14:14:29.095Z,5.53
2018-02-27T14:16:56.717Z,5.03
2018-02-27T14:19:24.332Z,8.80
2018-02-27T14:21:51.950Z,8.63
2018-02-27T14:24:19.577Z,6.17
2018-02-27T14:26:47.968Z,5.73
2018-02-27T14:29:16.368Z,8.03
2018-02-27T14:31:43.993Z,5.90
2018-02-27T14:34:13.132Z,7.00
2018-02-27T14:36:40.764Z,6.50
2018-02-27T14:39:09.140Z,4.00
2018-02-27T14:41:36.756Z,8.00
2018-02-27T14:44:05.380Z,5.43
2018-02-27T14:46:33.002Z,5.27
2018-02-27T14:49:00.613Z,4.17
2018-02-27T14:51:28.240Z,9.27
2018-02-27T14:53:55.856Z,8.03
2018-02-27T14:56:23.477Z,7.03
2018-02-27T14:58:51.097Z,9.83
2018-02-27T15:01:18.772Z,8.07
2018-02-27T15:03:46.381Z,7.03
2018-02-27T15:06:14.000Z,7.40
2018-02-27T15:08:42.588Z,5.37
2018-02-27T15:11:10.979Z,5.73
2018-02-27T15:13:38.613Z,5.70
2018-02-27T15:16:09.260Z,9.43
2018-02-27T15:18:36.881Z,6.53
2018-02-27T15:21:04.516Z,6.07
2018-02-27T15:23:32.910Z,9.23
2018-02-27T15:26:01.288Z,7.63
2018-02-27T15:28:28.912Z,17.97
2018-02-27T15:30:56.555Z,7.93
2018-02-27T15:33:24.180Z,6.43
2018-02-27T15:35:52.576Z,8.03
2018-02-27T15:38:20.204Z,5.90
2018-02-27T15:40:47.833Z,7.53
2018-02-27T15:43:15.464Z,8.67
2018-02-27T15:45:43.085Z,5.57
2018-02-27T15:48:10.723Z,6.13
2018-02-27T15:50:38.359Z,6.27
2018-02-27T15:53:05.976Z,4.37
2018-02-27T15:55:33.661Z,5.40
2018-02-27T15:58:01.283Z,7.13
2018-02-27T16:00:28.945Z,7.00
2018-02-27T16:02:56.586Z,5.77
2018-02-27T16:05:25.165Z,8.37
2018-02-27T16:07:53.576Z,6.37
2018-02-27T16:10:21.192Z,8.10
2018-02-27T16:12:48.817Z,5.87
2018-02-27T16:15:16.449Z,6.00
2018-02-27T16:17:44.834Z,5.80
2018-02-27T16:20:13.221Z,5.57
2018-02-27T16:22:41.616Z,4.20
2018-02-27T16:25:09.236Z,4.00
2018-02-27T16:27:36.872Z,6.80
2018-02-27T16:30:04.492Z,7.33
2018-02-27T16:32:32.473Z,6.13
2018-02-27T16:35:00.856Z,7.13
2018-02-27T16:37:29.259Z,8.07
2018-02-27T16:39:56.899Z,4.90
2018-02-27T16:42:24.520Z,3.90
2018-02-27T16:44:52.245Z,4.77
2018-02-27T16:47:21.824Z,7.17
2018-02-27T16:49:49.460Z,6.23
2018-02-27T16:52:17.116Z,7.33
2018-02-27T16:54:44.744Z,4.53
2018-02-27T16:57:12.369Z,11.00
2018-02-27T16:59:40.216Z,4.97
2018-02-27T17:02:07.820Z,9.13
2018-02-27T17:04:35.436Z,7.87
2018-02-27T17:07:03.140Z,6.10
2018-02-27T17:09:30.716Z,6.60
2018-02-27T17:11:58.381Z,5.40
2018-02-27T17:14:26.000Z,6.37
2018-02-27T17:16:53.624Z,4.77
2018-02-27T17:19:28.640Z,7.37
2018-02-27T17:21:56.273Z,8.17
2018-02-27T17:24:26.772Z,9.20
2018-02-27T17:26:54.557Z,9.77
2018-02-27T17:29:22.184Z,9.17
2018-02-27T17:31:49.804Z,9.07
2018-02-27T17:34:17.440Z,6.97
2018-02-27T17:36:45.833Z,15.03
2018-02-27T17:39:14.265Z,8.67
2018-02-27T17:41:41.929Z,11.33
2018-02-27T17:44:09.667Z,10.80
2018-02-27T17:46:38.087Z,8.60
2018-02-27T17:49:05.810Z,11.27
2018-02-27T17:51:33.512Z,6.53
2018-02-27T17:54:01.170Z,7.73
2018-02-27T17:56:28.906Z,12.33
2018-02-27T17:58:57.445Z,11.67
2018-02-27T18:01:25.860Z,10.47
2018-02-27T18:03:53.663Z,8.73
2018-02-27T18:06:21.366Z,8.27
2018-02-27T18:08:49.027Z,10.00
2018-02-27T18:11:16.771Z,9.83
2018-02-27T18:13:45.494Z,8.70
2018-02-27T18:16:13.229Z,7.83
2018-02-27T18:18:40.944Z,10.23
2018-02-27T18:21:08.616Z,9.17
2018-02-27T18:23:37.167Z,9.23
2018-02-27T18:26:04.854Z,10.63
2018-02-27T18:28:32.509Z,8.70
2018-02-27T18:31:00.239Z,9.90
2018-02-27T18:33:28.634Z,11.77
2018-02-27T18:36:06.774Z,10.40
2018-02-27T18:38:34.416Z,13.10
2018-02-27T18:41:02.053Z,11.67
2018-02-27T18:43:29.688Z,13.33
2018-02-27T18:45:57.323Z,13.00
2018-02-27T18:48:24.944Z,12.37
2018-02-27T18:50:52.748Z,11.93
2018-02-27T18:53:24.072Z,10.57
2018-02-27T18:55:52.448Z,10.20
2018-02-27T18:58:20.849Z,21.50
2018-02-27T19:00:49.033Z,17.50
2018-02-27T19:03:16.664Z,12.70
2018-02-27T19:05:45.101Z,10.17
2018-02-27T19:08:12.731Z,10.90
2018-02-27T19:10:40.602Z,9.97
2018-02-27T19:13:08.217Z,8.83
2018-02-27T19:15:36.219Z,11.43
2018-02-27T19:18:03.976Z,13.63
2018-02-27T19:20:32.585Z,10.63
2018-02-27T19:23:01.013Z,13.50
2018-02-27T19:25:28.696Z,12.97
2018-02-27T19:27:56.329Z,12.23
2018-02-27T19:30:23.953Z,10.23
2018-02-27T19:32:51.587Z,11.53
2018-02-27T19:35:19.214Z,10.87
2018-02-27T19:37:46.875Z,10.07
2018-02-27T19:40:15.309Z,16.57
2018-02-27T19:42:42.980Z,11.77
2018-02-27T19:45:10.701Z,13.07
2018-02-27T19:47:39.076Z,11.87
2018-02-27T19:50:06.704Z,16.00
2018-02-27T19:52:34.328Z,11.63
2018-02-27T19:55:01.971Z,12.50
2018-02-27T19:57:30.429Z,18.50
2018-02-27T19:59:58.048Z,15.63
2018-02-27T20:02:25.708Z,13.50
2018-02-27T20:04:53.921Z,17.97
2018-02-27T20:07:21.566Z,14.40
2018-02-27T20:09:50.192Z,15.27
2018-02-27T20:12:17.829Z,14.13
2018-02-27T20:14:45.487Z,14.17
2018-02-27T20:17:13.239Z,16.77
2018-02-27T20:19:41.008Z,14.53
2018-02-27T20:22:08.656Z,14.63
2018-02-27T20:24:36.280Z,15.67
2018-02-27T20:27:03.908Z,16.43
2018-02-27T20:29:31.553Z,14.70
2018-02-27T20:31:59.944Z,15.33
2018-02-27T20:34:27.576Z,13.50
2018-02-27T20:36:55.204Z,16.10
2018-02-27T20:39:22.835Z,13.57
2018-02-27T20:41:51.240Z,13.83
2018-02-27T20:44:18.876Z,15.07
2018-02-27T20:46:47.298Z,19.50
2018-02-27T20:49:14.917Z,13.00
2018-02-27T20:51:42.548Z,16.50
2018-02-27T20:54:10.176Z,14.67
2018-02-27T20:56:37.816Z,14.30
2018-02-27T20:59:05.432Z,17.43
2018-02-27T21:01:48.101Z,16.70
2018-02-27T21:04:16.501Z,21.67
2018-02-27T21:06:44.143Z,18.13
2018-02-27T21:09:12.545Z,15.67
2018-02-27T21:11:40.932Z,19.53
2018-02-27T21:14:08.571Z,16.43
2018-02-27T21:16:36.968Z,20.27
2018-02-27T21:19:05.369Z,19.67
2018-02-27T21:21:33.426Z,21.40
2018-02-27T21:24:01.824Z,23.10
2018-02-27T21:26:29.477Z,22.70
2018-02-27T21:28:57.878Z,18.73
2018-02-27T21:31:25.504Z,17.97
2018-02-27T21:33:53.909Z,22.00
2018-02-27T21:36:22.308Z,23.07
2018-02-27T21:39:00.679Z,18.50
2018-02-27T21:41:28.327Z,18.30
2018-02-27T21:43:55.957Z,21.47
2018-02-27T21:46:23.590Z,19.23
2018-02-27T21:48:51.229Z,20.63
2018-02-27T21:51:18.860Z,22.30
2018-02-27T21:53:46.500Z,20.13
2018-02-27T21:56:14.897Z,17.20
2018-02-27T21:58:42.539Z,17.17
2018-02-27T22:01:10.169Z,18.57
2018-02-27T22:03:37.797Z,16.90
2018-02-27T22:06:05.454Z,20.60
2018-02-27T22:08:33.460Z,20.47
2018-02-27T22:11:01.100Z,20.93
2018-02-27T22:13:29.484Z,19.60
2018-02-27T22:15:57.116Z,22.47
2018-02-27T22:18:24.755Z,21.63
2018-02-27T22:20:52.387Z,27.33
2018-02-27T22:23:20.025Z,23.60
2018-02-27T22:25:47.671Z,26.77
2018-02-27T22:28:15.296Z,20.23
2018-02-27T22:30:42.925Z,28.83
2018-02-27T22:33:11.331Z,25.03
2018-02-27T22:35:38.965Z,25.13
2018-02-27T22:38:06.604Z,24.20
2018-02-27T22:40:34.236Z,25.33
2018-02-27T22:43:01.879Z,24.67
2018-02-27T22:45:29.505Z,26.10
2018-02-27T22:47:57.128Z,24.97
2018-02-27T22:50:24.769Z,25.77
2018-02-27T22:52:52.396Z,23.20
2018-02-27T22:55:20.034Z,19.43
2018-02-27T22:57:47.660Z,22.33
2018-02-27T23:03:14.320Z,18.93
2018-02-27T23:05:41.965Z,18.97
2018-02-27T23:08:09.597Z,16.60
2018-02-27T23:10:37.235Z,17.27
2018-02-27T23:13:05.620Z,16.23
2018-02-27T23:15:34.617Z,18.07
2018-02-27T23:18:02.252Z,16.00
2018-02-27T23:20:29.876Z,16.03
2018-02-27T23:22:57.516Z,15.57
2018-02-27T23:25:25.140Z,15.37
2018-02-27T23:27:52.772Z,17.40
2018-02-27T23:30:20.404Z,17.83
2018-02-27T23:32:48.800Z,20.40
2018-02-27T23:35:16.445Z,18.57
2018-02-27T23:37:44.848Z,18.70
2018-02-27T23:40:12.477Z,18.50
2018-02-27T23:42:40.105Z,23.27
2018-02-27T23:45:07.732Z,20.10
2018-02-27T23:47:36.127Z,18.00
2018-02-27T23:50:03.779Z,19.23
2018-02-27T23:52:32.173Z,21.80
2018-02-27T23:54:59.820Z,19.70
2018-02-27T23:57:28.236Z,17.47
2018-02-27T23:59:55.884Z,23.90
